createdAt,value
2023-04-06T00:00:53.563Z,0.00
2023-04-06T00:01:53.601Z,0.00
2023-04-06T00:02:53.571Z,0.00
2023-04-06T00:03:53.636Z,0.00
2023-04-06T00:04:53.480Z,0.00
2023-04-06T00:05:53.495Z,0.00
2023-04-06T00:06:53.453Z,0.00
2023-04-06T00:07:53.437Z,0.00
2023-04-06T00:08:53.449Z,0.00
2023-04-06T00:09:53.441Z,0.00
2023-04-06T00:10:53.431Z,0.00
2023-04-06T00:11:53.424Z,0.00
2023-04-06T00:12:53.442Z,0.00
2023-04-06T00:13:53.420Z,0.00
2023-04-06T00:14:53.483Z,0.00
2023-04-06T00:15:53.381Z,0.00
2023-04-06T00:16:53.371Z,0.00
2023-04-06T00:17:53.422Z,0.00
2023-04-06T00:18:53.363Z,0.00
2023-04-06T00:19:53.378Z,0.00
2023-04-06T00:20:53.308Z,0.00
2023-04-06T00:21:53.413Z,0.00
2023-04-06T00:22:53.303Z,0.00
2023-04-06T00:23:53.298Z,0.00
2023-04-06T00:24:53.302Z,0.00
2023-04-06T00:25:53.284Z,0.00
2023-04-06T00:26:53.292Z,0.00
2023-04-06T00:27:53.241Z,0.00
2023-04-06T00:28:53.247Z,0.00
2023-04-06T00:29:53.235Z,0.00
2023-04-06T00:30:53.247Z,0.00
2023-04-06T00:31:53.295Z,0.00
2023-04-06T00:32:53.212Z,0.00
2023-04-06T00:33:53.189Z,0.00
2023-04-06T00:34:53.199Z,0.00
2023-04-06T00:35:53.239Z,0.00
2023-04-06T00:36:53.146Z,0.00
2023-04-06T00:37:53.196Z,0.00
2023-04-06T00:38:53.158Z,0.00
2023-04-06T00:39:53.119Z,0.00
2023-04-06T00:40:53.125Z,0.00
2023-04-06T00:41:53.150Z,0.00
2023-04-06T00:42:53.119Z,0.00
2023-04-06T00:43:53.144Z,0.00
2023-04-06T00:44:53.069Z,0.00
2023-04-06T00:45:53.119Z,0.00
2023-04-06T00:46:53.060Z,0.00
2023-04-06T00:47:53.098Z,0.00
2023-04-06T00:48:53.016Z,0.00
2023-04-06T00:49:53.047Z,0.00
2023-04-06T00:50:53.051Z,0.00
2023-04-06T00:51:53.014Z,0.00
2023-04-06T00:52:53.027Z,0.00
2023-04-06T00:53:52.998Z,0.00
2023-04-06T00:54:52.976Z,0.00
2023-04-06T00:55:52.969Z,0.00
2023-04-06T00:56:52.970Z,0.00
2023-04-06T00:57:52.973Z,0.00
2023-04-06T00:58:53.034Z,0.00
2023-04-06T00:59:52.941Z,0.00
2023-04-06T01:00:52.905Z,0.00
2023-04-06T01:01:52.992Z,0.00
2023-04-06T01:02:52.926Z,0.00
2023-04-06T01:03:52.937Z,0.00
2023-04-06T01:04:52.889Z,0.00
2023-04-06T01:05:52.983Z,0.00
2023-04-06T01:06:52.853Z,0.00
2023-04-06T01:07:52.850Z,0.00
2023-04-06T01:08:52.818Z,0.00
2023-04-06T01:09:52.877Z,0.00
2023-04-06T01:10:52.830Z,0.00
2023-04-06T01:11:52.812Z,0.00
2023-04-06T01:12:52.795Z,0.00
2023-04-06T01:13:52.796Z,0.00
2023-04-06T01:14:52.780Z,0.00
2023-04-06T01:15:52.825Z,0.00
2023-04-06T01:16:52.766Z,0.00
2023-04-06T01:17:52.815Z,0.00
2023-04-06T01:18:52.746Z,0.00
2023-04-06T01:19:52.750Z,0.00
2023-04-06T01:20:52.731Z,0.00
2023-04-06T01:21:52.718Z,0.00
2023-04-06T01:22:52.711Z,0.00
2023-04-06T01:23:52.710Z,0.00
2023-04-06T01:24:52.720Z,0.00
2023-04-06T01:25:52.674Z,0.00
2023-04-06T01:26:52.686Z,0.00
2023-04-06T01:27:52.676Z,0.00
2023-04-06T01:28:52.657Z,0.00
2023-04-06T01:29:52.646Z,0.00
2023-04-06T01:30:52.605Z,0.00
2023-04-06T01:31:52.701Z,0.00
2023-04-06T01:32:52.683Z,0.00
2023-04-06T01:33:52.635Z,0.00
2023-04-06T01:34:52.590Z,0.00
2023-04-06T01:35:52.600Z,0.00
2023-04-06T01:36:52.556Z,0.00
2023-04-06T01:37:52.537Z,0.00
2023-04-06T01:38:52.564Z,0.00
2023-04-06T01:39:52.549Z,0.00
2023-04-06T01:40:52.551Z,0.00
2023-04-06T01:41:52.514Z,0.00
2023-04-06T01:42:52.492Z,0.00
2023-04-06T01:43:52.531Z,0.00
2023-04-06T01:44:53.251Z,0.00
2023-04-06T01:45:52.489Z,0.00
2023-04-06T01:46:52.564Z,0.00
2023-04-06T01:47:52.531Z,0.00
2023-04-06T01:48:52.483Z,0.00
2023-04-06T01:49:52.466Z,0.00
2023-04-06T01:50:52.420Z,0.00
2023-04-06T01:51:52.421Z,0.00
2023-04-06T01:52:52.384Z,0.00
2023-04-06T01:53:52.431Z,0.00
2023-04-06T01:54:52.361Z,0.00
2023-04-06T01:55:52.359Z,0.00
2023-04-06T01:56:52.374Z,0.00
2023-04-06T01:57:52.360Z,0.00
2023-04-06T01:58:52.369Z,0.00
2023-04-06T01:59:52.326Z,0.00
2023-04-06T02:00:52.355Z,0.00
2023-04-06T02:01:52.343Z,0.00
2023-04-06T02:02:52.356Z,0.00
2023-04-06T02:03:52.299Z,0.00
2023-04-06T02:04:52.283Z,0.00
2023-04-06T02:05:52.269Z,0.00
2023-04-06T02:06:52.352Z,0.00
2023-04-06T02:07:52.276Z,0.00
2023-04-06T02:08:52.250Z,0.00
2023-04-06T02:09:52.208Z,0.00
2023-04-06T02:10:52.226Z,0.00
2023-04-06T02:11:52.425Z,0.00
2023-04-06T02:12:52.228Z,0.00
2023-04-06T02:13:52.187Z,0.00
2023-04-06T02:14:52.195Z,0.00
2023-04-06T02:15:52.147Z,0.00
2023-04-06T02:16:52.259Z,0.00
2023-04-06T02:17:52.230Z,0.00
2023-04-06T02:18:52.127Z,0.00
2023-04-06T02:19:52.104Z,0.00
2023-04-06T02:20:52.113Z,0.00
2023-04-06T02:21:52.223Z,0.00
2023-04-06T02:22:52.114Z,0.00
2023-04-06T02:23:52.090Z,0.00
2023-04-06T02:24:52.048Z,0.00
2023-04-06T02:25:52.062Z,0.00
2023-04-06T02:26:52.055Z,0.00
2023-04-06T02:27:52.068Z,0.00
2023-04-06T02:28:52.022Z,0.00
2023-04-06T02:29:52.018Z,0.00
2023-04-06T02:30:51.996Z,0.00
2023-04-06T02:31:52.044Z,0.00
2023-04-06T02:32:52.113Z,0.00
2023-04-06T02:33:51.994Z,0.00
2023-04-06T02:34:52.005Z,0.00
2023-04-06T02:35:52.002Z,0.00
2023-04-06T02:36:51.936Z,0.00
2023-04-06T02:37:51.936Z,0.00
2023-04-06T02:38:51.948Z,0.00
2023-04-06T02:39:51.952Z,0.00
2023-04-06T02:40:51.916Z,0.00
2023-04-06T02:41:51.899Z,0.00
2023-04-06T02:42:51.910Z,0.00
2023-04-06T02:43:51.920Z,0.00
2023-04-06T02:44:51.870Z,0.00
2023-04-06T02:45:51.899Z,0.00
2023-04-06T02:46:51.839Z,0.00
2023-04-06T02:47:51.958Z,0.00
2023-04-06T02:48:51.809Z,0.00
2023-04-06T02:49:51.823Z,0.00
2023-04-06T02:50:51.865Z,0.00
2023-04-06T02:51:51.820Z,0.00
2023-04-06T02:52:51.789Z,0.00
2023-04-06T02:53:51.805Z,0.00
2023-04-06T02:54:51.761Z,0.00
2023-04-06T02:55:51.764Z,0.00
2023-04-06T02:56:51.771Z,0.00
2023-04-06T02:57:51.731Z,0.00
2023-04-06T02:58:51.791Z,0.00
2023-04-06T02:59:51.747Z,0.00
2023-04-06T03:00:51.696Z,0.00
2023-04-06T03:01:51.766Z,0.00
2023-04-06T03:02:51.802Z,0.00
2023-04-06T03:03:51.807Z,0.00
2023-04-06T03:04:51.701Z,0.00
2023-04-06T03:05:51.691Z,0.00
2023-04-06T03:06:51.681Z,0.00
2023-04-06T03:07:51.671Z,0.00
2023-04-06T03:08:51.620Z,0.00
2023-04-06T03:09:51.620Z,0.00
2023-04-06T03:10:51.664Z,0.00
2023-04-06T03:11:51.574Z,0.00
2023-04-06T03:12:51.614Z,0.00
2023-04-06T03:13:51.623Z,0.00
2023-04-06T03:14:51.562Z,0.00
2023-04-06T03:15:51.582Z,0.00
2023-04-06T03:16:51.547Z,0.00
2023-04-06T03:17:51.581Z,0.00
2023-04-06T03:18:51.550Z,0.00
2023-04-06T03:19:51.503Z,0.00
2023-04-06T03:20:51.546Z,0.00
2023-04-06T03:21:51.486Z,0.00
2023-04-06T03:22:51.488Z,0.00
2023-04-06T03:23:51.517Z,0.00
2023-04-06T03:24:51.441Z,0.00
2023-04-06T03:25:51.453Z,0.00
2023-04-06T03:26:51.447Z,0.00
2023-04-06T03:27:51.437Z,0.00
2023-04-06T03:28:51.425Z,0.00
2023-04-06T03:29:51.418Z,0.00
2023-04-06T03:30:51.445Z,0.00
2023-04-06T03:31:51.476Z,0.00
2023-04-06T03:32:51.446Z,0.00
2023-04-06T03:33:51.389Z,0.00
2023-04-06T03:34:51.401Z,0.00
2023-04-06T03:35:51.448Z,0.00
2023-04-06T03:37:02.905Z,0.00
2023-04-06T03:37:51.324Z,0.00
2023-04-06T03:38:51.319Z,0.00
2023-04-06T03:39:51.340Z,0.00
2023-04-06T03:40:51.303Z,0.00
2023-04-06T03:41:51.301Z,0.00
2023-04-06T03:42:51.298Z,0.00
2023-04-06T03:43:51.348Z,0.00
2023-04-06T03:44:51.287Z,0.00
2023-04-06T03:45:51.242Z,0.00
2023-04-06T03:46:51.288Z,0.00
2023-04-06T03:47:51.264Z,0.00
2023-04-06T03:48:51.249Z,0.00
2023-04-06T03:49:51.229Z,0.00
2023-04-06T03:50:51.215Z,0.00
2023-04-06T03:51:51.158Z,0.00
2023-04-06T03:52:51.187Z,0.00
2023-04-06T03:53:51.164Z,0.00
2023-04-06T03:54:51.169Z,0.00
2023-04-06T03:55:51.185Z,0.00
2023-04-06T03:56:51.123Z,0.00
2023-04-06T03:57:51.125Z,0.00
2023-04-06T03:58:51.253Z,0.00
2023-04-06T03:59:51.103Z,0.00
2023-04-06T04:00:51.113Z,0.00
2023-04-06T04:01:51.145Z,0.00
2023-04-06T04:02:51.121Z,0.00
2023-04-06T04:03:51.947Z,0.00
2023-04-06T04:04:51.077Z,0.00
2023-04-06T04:05:51.061Z,0.00
2023-04-06T04:06:51.019Z,0.00
2023-04-06T04:07:51.052Z,0.00
2023-04-06T04:08:51.013Z,0.00
2023-04-06T04:09:51.036Z,0.00
2023-04-06T04:10:51.031Z,0.00
2023-04-06T04:11:50.984Z,0.00
2023-04-06T04:12:50.939Z,1.00
2023-04-06T04:13:50.947Z,0.00
2023-04-06T04:14:50.897Z,1.00
2023-04-06T04:15:50.940Z,0.00
2023-04-06T04:16:50.997Z,0.00
2023-04-06T04:17:51.070Z,0.00
2023-04-06T04:18:50.917Z,0.00
2023-04-06T04:19:50.902Z,0.00
2023-04-06T04:20:50.879Z,0.00
2023-04-06T04:21:50.865Z,1.00
2023-04-06T04:22:50.909Z,1.00
2023-04-06T04:23:50.800Z,1.00
2023-04-06T04:24:50.837Z,0.00
2023-04-06T04:25:50.853Z,0.00
2023-04-06T04:26:50.854Z,2.00
2023-04-06T04:27:50.787Z,1.00
2023-04-06T04:28:50.842Z,0.00
2023-04-06T04:29:52.117Z,0.00
2023-04-06T04:30:50.726Z,3.00
2023-04-06T04:31:50.777Z,2.00
2023-04-06T04:32:50.789Z,2.00
2023-04-06T04:33:50.683Z,2.00
2023-04-06T04:34:50.697Z,2.00
2023-04-06T04:35:50.714Z,2.00
2023-04-06T04:36:50.692Z,3.00
2023-04-06T04:37:50.703Z,4.00
2023-04-06T04:38:50.662Z,5.00
2023-04-06T04:39:50.739Z,6.00
2023-04-06T04:40:50.690Z,7.00
2023-04-06T04:41:50.637Z,8.00
2023-04-06T04:42:50.609Z,9.00
2023-04-06T04:43:50.618Z,11.00
2023-04-06T04:44:50.600Z,13.00
2023-04-06T04:45:50.651Z,14.00
2023-04-06T04:46:50.626Z,16.00
2023-04-06T04:47:50.632Z,18.00
2023-04-06T04:48:50.553Z,19.00
2023-04-06T04:49:50.578Z,21.00
2023-04-06T04:50:50.544Z,25.00
2023-04-06T04:51:50.578Z,26.00
2023-04-06T04:52:50.567Z,28.00
2023-04-06T04:53:50.507Z,41.00
2023-04-06T04:54:50.581Z,44.00
2023-04-06T04:55:50.514Z,55.00
2023-04-06T04:56:50.601Z,58.00
2023-04-06T04:57:50.544Z,66.00
2023-04-06T04:58:50.478Z,81.00
2023-04-06T04:59:50.498Z,81.00
2023-04-06T05:00:50.423Z,95.00
2023-04-06T05:01:55.223Z,96.00
2023-04-06T05:02:50.475Z,107.00
2023-04-06T05:03:50.516Z,116.00
2023-04-06T05:04:50.485Z,123.00
2023-04-06T05:05:50.420Z,130.00
2023-04-06T05:06:50.440Z,146.00
2023-04-06T05:07:50.375Z,159.00
2023-04-06T05:08:50.440Z,172.00
2023-04-06T05:09:50.334Z,185.00
2023-04-06T05:10:50.465Z,197.00
2023-04-06T05:11:50.321Z,209.00
2023-04-06T05:12:50.309Z,226.00
2023-04-06T05:13:50.324Z,240.00
2023-04-06T05:14:50.317Z,252.00
2023-04-06T05:15:50.329Z,268.00
2023-04-06T05:16:50.290Z,281.00
2023-04-06T05:17:50.299Z,303.00
2023-04-06T05:18:50.249Z,316.00
2023-04-06T05:19:50.257Z,338.00
2023-04-06T05:20:50.276Z,346.00
2023-04-06T05:21:50.219Z,362.00
2023-04-06T05:22:50.306Z,391.00
2023-04-06T05:23:50.235Z,400.00
2023-04-06T05:24:50.194Z,420.00
2023-04-06T05:25:50.220Z,440.00
2023-04-06T05:26:50.188Z,459.00
2023-04-06T05:27:50.199Z,480.00
2023-04-06T05:28:50.157Z,496.00
2023-04-06T05:29:50.164Z,516.00
2023-04-06T05:30:50.145Z,530.00
2023-04-06T05:31:50.205Z,551.00
2023-04-06T05:32:50.196Z,574.00
2023-04-06T05:33:50.102Z,592.00
2023-04-06T05:34:50.146Z,610.00
2023-04-06T05:35:50.117Z,627.00
2023-04-06T05:36:50.079Z,643.00
2023-04-06T05:37:50.065Z,632.00
2023-04-06T05:38:50.080Z,290.00
2023-04-06T05:39:50.088Z,385.00
2023-04-06T05:40:50.161Z,1315.00
2023-04-06T05:41:50.087Z,996.00
2023-04-06T05:42:50.023Z,540.00
2023-04-06T05:43:50.017Z,682.00
2023-04-06T05:44:50.010Z,909.00
2023-04-06T05:45:50.031Z,1114.00
2023-04-06T05:46:49.986Z,940.00
2023-04-06T05:47:50.032Z,852.00
2023-04-06T05:48:49.986Z,519.00
2023-04-06T05:49:49.958Z,1764.00
2023-04-06T05:50:50.049Z,2137.00
2023-04-06T05:51:49.977Z,1392.00
2023-04-06T05:52:50.579Z,1239.00
2023-04-06T05:53:49.994Z,1016.00
2023-04-06T05:54:49.900Z,1021.00
2023-04-06T05:55:49.910Z,1042.00
2023-04-06T05:56:49.878Z,1058.00
2023-04-06T05:57:49.896Z,1037.00
2023-04-06T05:58:49.955Z,442.00
2023-04-06T05:59:49.932Z,817.00
2023-04-06T06:00:49.841Z,2036.00
2023-04-06T06:01:49.837Z,1316.00
2023-04-06T06:02:49.890Z,944.00
2023-04-06T06:03:50.522Z,1211.00
2023-04-06T06:04:49.898Z,1156.00
2023-04-06T06:05:49.841Z,1479.00
2023-04-06T06:06:49.803Z,1575.00
2023-04-06T06:07:49.774Z,1719.00
2023-04-06T06:08:49.755Z,1943.00
2023-04-06T06:09:49.759Z,1245.00
2023-04-06T06:10:49.726Z,1296.00
2023-04-06T06:11:49.704Z,1400.00
2023-04-06T06:12:49.740Z,1207.00
2023-04-06T06:13:49.807Z,1673.00
2023-04-06T06:14:49.705Z,2011.00
2023-04-06T06:15:49.972Z,2098.00
2023-04-06T06:16:49.731Z,1812.00
2023-04-06T06:17:49.833Z,1331.00
2023-04-06T06:18:49.671Z,1225.00
2023-04-06T06:19:49.686Z,1215.00
2023-04-06T06:20:49.635Z,2387.00
2023-04-06T06:21:49.629Z,1740.00
2023-04-06T06:22:49.604Z,1041.00
2023-04-06T06:23:49.578Z,1460.00
2023-04-06T06:24:49.625Z,3252.00
2023-04-06T06:25:49.560Z,1836.00
2023-04-06T06:26:49.605Z,4663.00
2023-04-06T06:27:49.577Z,4104.00
2023-04-06T06:28:49.561Z,3857.00
2023-04-06T06:29:49.597Z,4778.00
2023-04-06T06:30:49.546Z,5744.00
2023-04-06T06:31:49.571Z,4996.00
2023-04-06T06:32:49.581Z,1723.00
2023-04-06T06:33:49.482Z,2544.00
2023-04-06T06:34:49.488Z,3659.00
2023-04-06T06:35:49.518Z,3397.00
2023-04-06T06:36:51.712Z,5055.00
2023-04-06T06:37:49.454Z,8982.00
2023-04-06T06:38:49.572Z,10913.00
2023-04-06T06:39:49.465Z,10392.00
2023-04-06T06:40:49.443Z,6492.00
2023-04-06T06:41:49.512Z,5575.00
2023-04-06T06:42:49.410Z,8543.00
2023-04-06T06:43:49.414Z,6892.00
2023-04-06T06:44:49.401Z,3774.00
2023-04-06T06:45:49.457Z,2189.00
2023-04-06T06:46:49.372Z,5849.00
2023-04-06T06:47:49.456Z,7713.00
2023-04-06T06:48:49.373Z,5182.00
2023-04-06T06:49:49.342Z,5734.00
2023-04-06T06:50:49.396Z,5157.00
2023-04-06T06:51:49.458Z,6055.00
2023-04-06T06:52:49.299Z,7064.00
2023-04-06T06:53:49.324Z,4444.00
2023-04-06T06:54:49.326Z,6285.00
2023-04-06T06:55:49.265Z,6100.00
2023-04-06T06:56:49.332Z,3133.00
2023-04-06T06:57:49.300Z,8230.00
2023-04-06T06:58:49.346Z,10647.00
2023-04-06T06:59:49.244Z,7558.00
2023-04-06T07:00:49.237Z,6212.00
2023-04-06T07:01:49.211Z,9027.00
2023-04-06T07:02:49.257Z,7112.00
2023-04-06T07:03:49.244Z,9388.00
2023-04-06T07:04:49.357Z,10093.00
2023-04-06T07:05:49.175Z,9684.00
2023-04-06T07:06:49.235Z,10495.00
2023-04-06T07:07:49.171Z,11897.00
2023-04-06T07:08:49.151Z,9391.00
2023-04-06T07:09:49.168Z,13627.00
2023-04-06T07:10:49.329Z,8996.00
2023-04-06T07:11:49.127Z,3979.00
2023-04-06T07:12:49.118Z,2734.00
2023-04-06T07:13:49.212Z,2638.00
2023-04-06T07:14:49.206Z,2616.00
2023-04-06T07:15:49.088Z,2612.00
2023-04-06T07:16:49.388Z,2621.00
2023-04-06T07:17:49.090Z,2626.00
2023-04-06T07:18:49.027Z,2651.00
2023-04-06T07:19:49.029Z,2662.00
2023-04-06T07:20:49.105Z,2667.00
2023-04-06T07:21:49.051Z,2662.00
2023-04-06T07:22:49.003Z,2639.00
2023-04-06T07:23:49.036Z,2629.00
2023-04-06T07:24:48.960Z,2630.00
2023-04-06T07:25:48.990Z,2608.00
2023-04-06T07:26:49.015Z,2593.00
2023-04-06T07:27:49.036Z,2583.00
2023-04-06T07:28:50.245Z,2571.00
2023-04-06T07:29:48.940Z,2572.00
2023-04-06T07:30:48.993Z,2528.00
2023-04-06T07:31:48.969Z,2480.00
2023-04-06T07:32:48.977Z,2543.00
2023-04-06T07:33:49.036Z,2491.00
2023-04-06T07:34:48.926Z,2525.00
2023-04-06T07:35:48.922Z,2531.00
2023-04-06T07:36:48.874Z,2506.00
2023-04-06T07:37:48.830Z,2551.00
2023-04-06T07:38:48.935Z,2529.00
2023-04-06T07:39:48.853Z,2519.00
2023-04-06T07:40:48.786Z,2505.00
2023-04-06T07:41:48.819Z,2762.00
2023-04-06T07:42:48.774Z,2417.00
2023-04-06T07:43:48.971Z,1927.00
2023-04-06T07:44:48.820Z,2452.00
2023-04-06T07:45:48.787Z,2459.00
2023-04-06T07:46:48.792Z,2508.00
2023-04-06T07:47:48.750Z,2497.00
2023-04-06T07:48:48.733Z,2530.00
2023-04-06T07:49:49.290Z,2411.00
2023-04-06T07:50:48.747Z,2524.00
2023-04-06T07:51:48.728Z,2457.00
2023-04-06T07:52:49.606Z,2502.00
2023-04-06T07:53:48.742Z,2484.00
2023-04-06T07:54:48.746Z,2460.00
2023-04-06T07:55:48.674Z,2455.00
2023-04-06T07:56:48.663Z,2464.00
2023-04-06T07:57:48.695Z,2476.00
2023-04-06T07:58:49.192Z,2574.00
2023-04-06T07:59:48.673Z,2291.00
2023-04-06T08:00:48.682Z,2339.00
2023-04-06T08:01:48.597Z,2331.00
2023-04-06T08:02:49.273Z,2294.00
2023-04-06T08:03:48.976Z,2439.00
2023-04-06T08:04:48.801Z,2557.00
2023-04-06T08:05:48.584Z,1995.00
2023-04-06T08:06:49.527Z,2361.00
2023-04-06T08:07:48.553Z,2446.00
2023-04-06T08:08:48.879Z,2476.00
2023-04-06T08:09:48.570Z,2425.00
2023-04-06T08:10:48.717Z,2512.00
2023-04-06T08:11:48.521Z,2437.00
2023-04-06T08:12:48.536Z,2468.00
2023-04-06T08:13:48.545Z,2488.00
2023-04-06T08:14:48.621Z,2487.00
2023-04-06T08:15:48.613Z,2493.00
2023-04-06T08:16:48.602Z,2474.00
2023-04-06T08:17:48.687Z,2463.00
2023-04-06T08:18:48.576Z,2465.00
2023-04-06T08:19:48.642Z,2441.00
2023-04-06T08:20:48.657Z,2468.00
2023-04-06T08:21:48.572Z,2443.00
2023-04-06T08:22:49.226Z,2444.00
2023-04-06T08:23:48.653Z,2433.00
2023-04-06T08:24:48.562Z,2423.00
2023-04-06T08:25:48.609Z,2436.00
2023-04-06T08:26:48.573Z,2421.00
2023-04-06T08:27:48.754Z,2432.00
2023-04-06T08:28:48.576Z,2438.00
2023-04-06T08:29:48.724Z,2410.00
2023-04-06T08:30:48.571Z,2411.00
2023-04-06T08:31:48.604Z,2402.00
2023-04-06T08:32:48.719Z,2428.00
2023-04-06T08:33:48.461Z,2410.00
2023-04-06T08:34:48.500Z,2420.00
2023-04-06T08:35:49.486Z,2407.00
2023-04-06T08:36:48.552Z,2389.00
2023-04-06T08:37:48.508Z,2372.00
2023-04-06T08:38:48.541Z,2373.00
2023-04-06T08:39:48.309Z,2369.00
2023-04-06T08:40:48.621Z,2429.00
2023-04-06T08:41:48.325Z,2264.00
2023-04-06T08:42:48.424Z,2385.00
2023-04-06T08:43:48.214Z,2381.00
2023-04-06T08:44:48.139Z,2387.00
2023-04-06T08:45:48.227Z,2388.00
2023-04-06T08:46:48.968Z,2404.00
2023-04-06T08:47:48.236Z,2320.00
2023-04-06T08:48:49.230Z,2395.00
2023-04-06T08:49:48.116Z,2345.00
2023-04-06T08:50:48.086Z,2376.00
2023-04-06T08:51:48.183Z,2338.00
2023-04-06T08:52:48.147Z,2334.00
2023-04-06T08:53:48.208Z,2514.00
2023-04-06T08:54:48.069Z,1976.00
2023-04-06T08:55:48.065Z,2277.00
2023-04-06T08:56:48.182Z,2263.00
2023-04-06T08:57:48.111Z,2293.00
2023-04-06T08:58:48.097Z,2275.00
2023-04-06T08:59:48.010Z,2301.00
2023-04-06T09:00:48.046Z,2325.00
2023-04-06T09:01:48.007Z,2305.00
2023-04-06T09:02:48.058Z,2316.00
2023-04-06T09:03:48.161Z,2315.00
2023-04-06T09:04:48.459Z,2237.00
2023-04-06T09:05:47.963Z,2465.00
2023-04-06T09:06:47.933Z,2303.00
2023-04-06T09:07:48.028Z,2342.00
2023-04-06T09:08:47.908Z,2334.00
2023-04-06T09:09:47.974Z,2352.00
2023-04-06T09:10:47.918Z,2316.00
2023-04-06T09:11:47.920Z,2407.00
2023-04-06T09:12:47.896Z,2294.00
2023-04-06T09:13:48.180Z,2178.00
2023-04-06T09:14:47.880Z,2429.00
2023-04-06T09:15:47.905Z,2402.00
2023-04-06T09:16:47.870Z,2252.00
2023-04-06T09:17:47.877Z,2138.00
2023-04-06T09:18:47.816Z,2220.00
2023-04-06T09:19:47.933Z,2364.00
2023-04-06T09:20:47.828Z,2307.00
2023-04-06T09:21:47.773Z,2304.00
2023-04-06T09:22:47.861Z,2329.00
2023-04-06T09:23:47.853Z,2322.00
2023-04-06T09:24:47.777Z,2193.00
2023-04-06T09:25:47.786Z,2351.00
2023-04-06T09:26:47.741Z,2309.00
2023-04-06T09:27:47.812Z,2426.00
2023-04-06T09:28:47.776Z,2151.00
2023-04-06T09:29:47.696Z,2231.00
2023-04-06T09:30:47.726Z,2195.00
2023-04-06T09:31:47.701Z,2288.00
2023-04-06T09:32:47.799Z,2302.00
2023-04-06T09:33:47.669Z,2318.00
2023-04-06T09:34:50.011Z,2328.00
2023-04-06T09:35:47.701Z,2330.00
2023-04-06T09:36:47.601Z,2343.00
2023-04-06T09:37:47.632Z,2345.00
2023-04-06T09:38:47.606Z,2349.00
2023-04-06T09:39:47.620Z,2353.00
2023-04-06T09:40:57.697Z,2334.00
2023-04-06T09:41:47.733Z,2370.00
2023-04-06T09:42:47.615Z,2360.00
2023-04-06T09:43:47.563Z,2368.00
2023-04-06T09:44:47.544Z,2385.00
2023-04-06T09:45:47.542Z,2380.00
2023-04-06T09:46:59.782Z,2416.00
2023-04-06T09:47:47.702Z,2134.00
2023-04-06T09:48:47.546Z,2796.00
2023-04-06T09:49:47.479Z,2359.00
2023-04-06T09:50:47.578Z,2358.00
2023-04-06T09:51:47.488Z,2379.00
2023-04-06T09:52:47.495Z,2378.00
2023-04-06T09:53:47.657Z,2368.00
2023-04-06T09:54:47.424Z,2383.00
2023-04-06T09:55:47.432Z,2377.00
2023-04-06T09:56:47.481Z,2362.00
2023-04-06T09:57:47.416Z,2392.00
2023-04-06T09:58:47.491Z,2347.00
2023-04-06T09:59:47.481Z,2377.00
2023-04-06T10:00:47.622Z,2386.00
2023-04-06T10:01:47.410Z,2397.00
2023-04-06T10:02:47.525Z,2391.00
2023-04-06T10:03:47.636Z,2372.00
2023-04-06T10:04:47.556Z,2591.00
2023-04-06T10:05:47.411Z,2473.00
2023-04-06T10:06:47.305Z,2236.00
2023-04-06T10:07:59.455Z,2332.00
2023-04-06T10:08:47.315Z,2307.00
2023-04-06T10:09:47.275Z,2045.00
2023-04-06T10:10:47.249Z,2449.00
2023-04-06T10:11:47.293Z,2562.00
2023-04-06T10:12:47.268Z,2688.00
2023-04-06T10:13:47.244Z,2380.00
2023-04-06T10:14:47.245Z,2006.00
2023-04-06T10:15:47.318Z,2398.00
2023-04-06T10:16:47.279Z,2256.00
2023-04-06T10:17:47.271Z,2426.00
2023-04-06T10:18:47.215Z,2389.00
2023-04-06T10:19:47.216Z,2405.00
2023-04-06T10:20:47.174Z,2610.00
2023-04-06T10:21:47.236Z,3219.00
2023-04-06T10:22:47.161Z,1539.00
2023-04-06T10:23:47.128Z,2689.00
2023-04-06T10:24:47.109Z,2692.00
2023-04-06T10:25:47.168Z,3020.00
2023-04-06T10:26:47.122Z,2665.00
2023-04-06T10:27:47.094Z,1889.00
2023-04-06T10:28:47.136Z,2553.00
2023-04-06T10:29:47.104Z,2658.00
2023-04-06T10:30:47.436Z,2406.00
2023-04-06T10:31:47.130Z,2660.00
2023-04-06T10:32:48.196Z,1002.00
2023-04-06T10:33:47.015Z,3938.00
2023-04-06T10:34:47.085Z,2701.00
2023-04-06T10:35:47.087Z,2564.00
2023-04-06T10:36:47.010Z,3523.00
2023-04-06T10:37:47.000Z,2502.00
2023-04-06T10:38:47.005Z,1335.00
2023-04-06T10:39:46.984Z,3613.00
2023-04-06T10:40:46.951Z,2856.00
2023-04-06T10:41:46.989Z,1816.00
2023-04-06T10:42:46.972Z,2817.00
2023-04-06T10:43:48.225Z,2529.00
2023-04-06T10:44:46.946Z,1312.00
2023-04-06T10:45:47.835Z,5162.00
2023-04-06T10:46:46.878Z,2592.00
2023-04-06T10:47:46.999Z,2003.00
2023-04-06T10:48:46.992Z,1932.00
2023-04-06T10:49:46.906Z,4295.00
2023-04-06T10:50:46.859Z,3687.00
2023-04-06T10:51:46.940Z,2736.00
2023-04-06T10:52:46.952Z,2006.00
2023-04-06T10:53:46.837Z,3016.00
2023-04-06T10:54:48.927Z,3399.00
2023-04-06T10:55:46.817Z,1514.00
2023-04-06T10:56:46.802Z,3346.00
2023-04-06T10:57:46.797Z,4217.00
2023-04-06T10:58:46.804Z,2672.00
2023-04-06T10:59:46.767Z,2862.00
2023-04-06T11:00:50.879Z,3946.00
2023-04-06T11:01:47.715Z,2996.00
2023-04-06T11:02:46.800Z,1662.00
2023-04-06T11:03:46.866Z,3287.00
2023-04-06T11:04:46.936Z,3319.00
2023-04-06T11:05:48.147Z,3343.00
2023-04-06T11:06:46.698Z,2500.00
2023-04-06T11:07:46.690Z,3232.00
2023-04-06T11:08:46.757Z,3241.00
2023-04-06T11:09:53.212Z,3338.00
2023-04-06T11:10:46.668Z,3072.00
2023-04-06T11:11:46.673Z,2633.00
2023-04-06T11:12:46.627Z,2939.00
2023-04-06T11:13:46.638Z,3394.00
2023-04-06T11:14:46.598Z,2672.00
2023-04-06T11:15:46.633Z,2767.00
2023-04-06T11:16:46.651Z,2701.00
2023-04-06T11:17:46.660Z,2927.00
2023-04-06T11:18:46.572Z,2739.00
2023-04-06T11:19:46.593Z,2628.00
2023-04-06T11:20:46.581Z,2764.00
2023-04-06T11:21:46.542Z,2637.00
2023-04-06T11:22:46.573Z,2743.00
2023-04-06T11:23:46.501Z,2665.00
2023-04-06T11:24:46.516Z,2761.00
2023-04-06T11:25:46.741Z,2452.00
2023-04-06T11:26:46.548Z,3321.00
2023-04-06T11:27:46.453Z,2912.00
2023-04-06T11:28:46.464Z,2753.00
2023-04-06T11:29:46.445Z,2686.00
2023-04-06T11:30:46.528Z,2843.00
2023-04-06T11:31:46.433Z,3050.00
2023-04-06T11:32:46.519Z,2747.00
2023-04-06T11:33:46.404Z,2617.00
2023-04-06T11:34:46.395Z,3114.00
2023-04-06T11:35:46.436Z,2615.00
2023-04-06T11:36:46.436Z,3146.00
2023-04-06T11:37:46.420Z,2845.00
2023-04-06T11:38:46.360Z,3022.00
2023-04-06T11:39:46.365Z,2938.00
2023-04-06T11:40:46.337Z,2698.00
2023-04-06T11:41:46.319Z,2314.00
2023-04-06T11:42:47.192Z,3257.00
2023-04-06T11:43:46.305Z,2665.00
2023-04-06T11:44:46.366Z,2185.00
2023-04-06T11:45:46.262Z,4364.00
2023-04-06T11:46:46.391Z,2733.00
2023-04-06T11:47:46.321Z,4148.00
2023-04-06T11:48:46.363Z,3166.00
2023-04-06T11:49:46.273Z,2803.00
2023-04-06T11:50:46.308Z,3007.00
2023-04-06T11:51:46.202Z,2569.00
2023-04-06T11:52:46.232Z,3762.00
2023-04-06T11:53:46.200Z,3092.00
2023-04-06T11:54:46.197Z,3154.00
2023-04-06T11:55:46.196Z,3438.00
2023-04-06T11:56:46.189Z,2981.00
2023-04-06T11:57:46.196Z,3135.00
2023-04-06T11:58:46.170Z,3470.00
2023-04-06T11:59:46.179Z,3462.00
2023-04-06T12:00:47.351Z,3355.00
2023-04-06T12:01:46.258Z,3277.00
2023-04-06T12:02:46.224Z,3712.00
2023-04-06T12:03:46.429Z,3183.00
2023-04-06T12:04:46.238Z,3465.00
2023-04-06T12:05:46.068Z,3058.00
2023-04-06T12:06:46.062Z,2855.00
2023-04-06T12:07:46.118Z,2452.00
2023-04-06T12:08:46.061Z,3042.00
2023-04-06T12:09:46.029Z,2579.00
2023-04-06T12:10:46.046Z,3025.00
2023-04-06T12:11:46.021Z,2835.00
2023-04-06T12:12:46.021Z,3041.00
2023-04-06T12:13:46.003Z,3254.00
2023-04-06T12:14:45.997Z,3443.00
2023-04-06T12:15:46.014Z,3240.00
2023-04-06T12:16:45.976Z,3894.00
2023-04-06T12:17:45.984Z,3401.00
2023-04-06T12:18:45.941Z,2845.00
2023-04-06T12:19:45.954Z,3192.00
2023-04-06T12:20:45.968Z,3339.00
2023-04-06T12:21:45.923Z,3457.00
2023-04-06T12:22:45.991Z,3810.00
2023-04-06T12:23:45.909Z,3681.00
2023-04-06T12:24:45.900Z,3524.00
2023-04-06T12:25:45.934Z,3567.00
2023-04-06T12:26:46.179Z,3212.00
2023-04-06T12:27:45.848Z,2853.00
2023-04-06T12:28:45.865Z,3325.00
2023-04-06T12:29:45.874Z,3282.00
2023-04-06T12:30:45.861Z,3253.00
2023-04-06T12:31:45.889Z,3453.00
2023-04-06T12:32:46.291Z,3254.00
2023-04-06T12:33:45.807Z,3213.00